Time;durP1;ratioP1;P1;durP2;ratioP2;P2;SDS_P1;SDS_P2;PMS_P1;PMS_P2;Temp;Humidity;BMP_temperature;BMP_pressure;BME280_temperature;BME280_humidity;BME280_pressure;Samples;Min_cycle;Max_cycle;Signal;HPM_P1;HPM_P2
2022/12/24 00:02:15;;;;;;;10.80;2.43;;;;;;;9.15;100.00;95302.94;5071180;28;24461;-71
2022/12/24 00:04:41;;;;;;;7.10;2.15;;;;;;;9.08;100.00;95307.66;5071773;28;24458;-71
2022/12/24 00:07:08;;;;;;;5.20;2.00;;;;;;;9.20;100.00;95308.66;5069294;28;24434;-71
2022/12/24 00:09:36;;;;;;;7.68;2.45;;;;;;;9.10;100.00;95311.00;5068407;28;24455;-71
2022/12/24 00:12:02;;;;;;;5.65;2.10;;;;;;;9.04;100.00;95305.38;5070254;28;24443;-71
2022/12/24 00:14:29;;;;;;;6.33;2.10;;;;;;;9.06;100.00;95321.63;5070444;28;24837;-71
2022/12/24 00:16:55;;;;;;;9.70;2.30;;;;;;;9.01;100.00;95326.25;5070481;28;25223;-71
2022/12/24 00:19:22;;;;;;;5.13;2.03;;;;;;;8.90;100.00;95325.19;5074905;28;20771;-71
2022/12/24 00:21:48;;;;;;;7.13;2.00;;;;;;;8.88;100.00;95321.03;5078037;28;24473;-71
2022/12/24 00:24:15;;;;;;;8.32;1.98;;;;;;;8.86;100.00;95313.41;5074511;28;20797;-71
2022/12/24 00:26:43;;;;;;;8.95;2.33;;;;;;;8.72;100.00;95321.19;5072055;28;24932;-70
2022/12/24 00:29:10;;;;;;;10.00;2.63;;;;;;;8.69;100.00;95318.78;5073078;28;24453;-71
2022/12/24 00:31:37;;;;;;;9.18;2.72;;;;;;;8.71;100.00;95315.19;5068734;28;24446;-70
2022/12/24 00:34:03;;;;;;;7.85;1.88;;;;;;;8.70;100.00;95312.69;5076164;28;24445;-70
2022/12/24 00:36:30;;;;;;;6.38;2.35;;;;;;;8.64;100.00;95315.63;5079284;28;24446;-71
2022/12/24 00:38:56;;;;;;;9.07;2.60;;;;;;;8.65;100.00;95319.91;5075830;28;24458;-71
2022/12/24 00:41:27;;;;;;;9.67;2.40;;;;;;;8.66;100.00;95318.97;5076202;28;24450;-71
2022/12/24 00:43:57;;;;;;;11.65;2.97;;;;;;;8.58;100.00;95319.44;5071293;28;24496;-71
2022/12/24 00:46:24;;;;;;;6.38;2.13;;;;;;;8.50;100.00;95311.34;5075648;28;20768;-70
2022/12/24 00:48:51;;;;;;;11.40;2.03;;;;;;;8.48;100.00;95313.19;5080043;28;21822;-70
2022/12/24 00:51:18;;;;;;;7.35;2.35;;;;;;;8.46;100.00;95312.47;5076179;28;24439;-70
2022/12/24 00:53:45;;;;;;;8.30;2.27;;;;;;;8.49;100.00;95314.84;5073962;28;24458;-70
2022/12/24 00:56:11;;;;;;;6.15;2.20;;;;;;;8.54;100.00;95317.16;5070934;28;25011;-70
2022/12/24 00:58:38;;;;;;;13.73;2.70;;;;;;;8.44;100.00;95324.63;5070885;28;24457;-70
2022/12/24 01:01:07;;;;;;;12.73;2.55;;;;;;;8.37;100.00;95342.22;5070157;28;25326;-71
2022/12/24 01:03:35;;;;;;;7.10;2.15;;;;;;;8.24;100.00;95347.28;5072199;28;24470;-71
2022/12/24 01:06:00;;;;;;;8.88;2.22;;;;;;;8.20;100.00;95358.72;5071395;28;24478;-72
2022/12/24 01:08:27;;;;;;;10.07;2.30;;;;;;;8.14;100.00;95355.66;5071611;28;24547;-70
2022/12/24 01:10:54;;;;;;;7.00;2.42;;;;;;;8.05;100.00;95374.28;5067206;28;24425;-71
2022/12/24 01:13:20;;;;;;;4.70;1.90;;;;;;;7.97;100.00;95380.72;5067579;28;25011;-72
2022/12/24 01:15:47;;;;;;;5.38;1.83;;;;;;;7.97;100.00;95372.13;5073140;28;24788;-72
2022/12/24 01:18:15;;;;;;;10.85;1.73;;;;;;;8.09;100.00;95363.69;5068666;28;24449;-72
2022/12/24 01:20:41;;;;;;;6.55;2.08;;;;;;;7.86;100.00;95385.66;5066724;28;24817;-71
2022/12/24 01:23:08;;;;;;;7.97;1.80;;;;;;;7.84;100.00;95397.81;5073388;28;20793;-72
2022/12/24 01:25:34;;;;;;;6.22;2.20;;;;;;;7.79;100.00;95392.09;5071191;28;20827;-72
2022/12/24 01:28:01;;;;;;;15.93;1.85;;;;;;;7.71;100.00;95402.84;5070629;28;24450;-72
2022/12/24 01:30:27;;;;;;;7.80;2.20;;;;;;;7.70;100.00;95405.50;5065100;28;24450;-71
2022/12/24 01:32:54;;;;;;;8.38;2.00;;;;;;;7.78;100.00;95405.88;5063945;28;24439;-72
2022/12/24 01:35:22;;;;;;;6.17;2.00;;;;;;;7.83;100.00;95403.06;5072365;28;24446;-72
2022/12/24 01:37:48;;;;;;;5.70;1.90;;;;;;;7.89;100.00;95413.00;5068570;28;20781;-72
2022/12/24 01:45:48;;;;;;;7.43;2.50;;;;;;;8.06;100.00;95433.50;5075940;28;20744;-71
2022/12/24 01:48:21;;;;;;;9.23;2.40;;;;;;;8.20;100.00;95430.94;5071731;28;21326;-71
2022/12/24 01:50:50;;;;;;;10.73;2.40;;;;;;;8.16;100.00;95431.22;5068478;28;24972;-71
2022/12/24 01:53:17;;;;;;;7.85;2.65;;;;;;;8.17;100.00;95443.19;5067270;28;20773;-71
2022/12/24 01:55:45;;;;;;;10.73;2.40;;;;;;;8.20;100.00;95440.44;5071894;28;25022;-71
2022/12/24 01:58:15;;;;;;;11.20;2.03;;;;;;;8.17;100.00;95440.63;5069109;28;25035;-71
2022/12/24 02:00:42;;;;;;;6.63;2.10;;;;;;;8.13;100.00;95449.44;5075070;28;24434;-71
2022/12/24 02:03:09;;;;;;;9.60;2.60;;;;;;;8.09;100.00;95468.59;5077510;28;24466;-71
2022/12/24 02:05:43;;;;;;;6.97;2.20;;;;;;;8.14;100.00;95456.25;5080896;28;24441;-71
2022/12/24 02:08:11;;;;;;;12.87;2.73;;;;;;;8.27;100.00;95464.97;5071929;28;24901;-71
2022/12/24 02:10:37;;;;;;;12.00;2.75;;;;;;;8.50;100.00;95463.63;5069622;28;24438;-71
2022/12/24 02:13:05;;;;;;;11.02;3.10;;;;;;;8.52;100.00;95468.69;5077498;28;25006;-72
2022/12/24 02:15:42;;;;;;;8.90;2.80;;;;;;;8.55;100.00;95458.19;5062322;28;24453;-72
2022/12/24 02:18:19;;;;;;;8.77;2.55;;;;;;;8.51;100.00;95474.78;5063378;28;24458;-71
2022/12/24 02:21:14;;;;;;;10.82;2.70;;;;;;;8.50;100.00;95476.53;5070722;28;20709;-71
2022/12/24 02:24:07;;;;;;;11.75;2.90;;;;;;;8.39;100.00;95481.50;5035487;28;20713;-72
2022/12/24 02:26:54;;;;;;;8.50;2.85;;;;;;;8.42;100.00;95497.63;5073397;28;24512;-72
2022/12/24 02:29:37;;;;;;;14.18;2.53;;;;;;;8.39;100.00;95499.56;5066027;28;25018;-72
2022/12/24 02:32:10;;;;;;;9.20;2.80;;;;;;;8.48;100.00;95488.69;5063899;28;20739;-72
2022/12/24 02:34:40;;;;;;;14.15;3.15;;;;;;;8.44;100.00;95493.19;5068148;28;20758;-72
2022/12/24 02:37:15;;;;;;;6.95;2.53;;;;;;;8.39;100.00;95491.81;5069338;28;24431;-71
2022/12/24 02:39:46;;;;;;;9.13;2.35;;;;;;;8.34;100.00;95499.78;5066968;28;20759;-72
2022/12/24 02:42:18;;;;;;;6.87;2.33;;;;;;;8.31;100.00;95494.81;5076982;28;24883;-72
2022/12/24 02:44:54;;;;;;;9.73;2.58;;;;;;;8.21;100.00;95498.84;5062430;28;20788;-69
2022/12/24 02:47:26;;;;;;;11.97;2.70;;;;;;;8.22;100.00;95495.34;5069073;28;20927;-71
2022/12/24 02:49:52;;;;;;;8.63;2.45;;;;;;;8.18;100.00;95514.50;5066671;28;24450;-72
2022/12/24 02:52:30;;;;;;;15.20;2.90;;;;;;;8.22;100.00;95492.75;5068623;28;24446;-72
2022/12/24 02:54:58;;;;;;;9.30;2.77;;;;;;;8.14;100.00;95490.63;5070018;28;20831;-72
2022/12/24 02:57:36;;;;;;;10.80;2.10;;;;;;;8.10;100.00;95501.22;5069133;28;24576;-70
2022/12/24 03:00:08;;;;;;;8.48;2.70;;;;;;;8.01;100.00;95500.00;5060146;28;24450;-71
2022/12/24 03:02:52;;;;;;;11.43;2.88;;;;;;;7.96;100.00;95496.84;5058355;28;24817;-71
2022/12/24 03:05:28;;;;;;;11.52;3.10;;;;;;;7.84;100.00;95497.53;5076881;28;20776;-71
2022/12/24 03:08:02;;;;;;;8.43;2.60;;;;;;;7.85;100.00;95514.66;5073953;28;21355;-71
2022/12/24 03:10:34;;;;;;;6.20;2.00;;;;;;;7.87;100.00;95503.34;5057812;28;20701;-71
2022/12/24 03:13:06;;;;;;;8.45;2.67;;;;;;;7.82;100.00;95502.75;5069489;28;20693;-71
2022/12/24 03:15:33;;;;;;;14.73;2.75;;;;;;;7.75;100.00;95501.47;5067243;28;24450;-71
2022/12/24 03:18:03;;;;;;;7.63;2.28;;;;;;;7.70;100.00;95501.69;5067524;28;20845;-71
2022/12/24 03:20:34;;;;;;;7.40;2.40;;;;;;;7.64;100.00;95519.25;5059144;28;24476;-71
2022/12/24 03:23:02;;;;;;;9.07;2.88;;;;;;;7.64;100.00;95517.53;5067497;28;20756;-71
2022/12/24 03:25:29;;;;;;;7.28;2.45;;;;;;;7.70;100.00;95521.50;5062328;28;20830;-71
2022/12/24 03:27:56;;;;;;;7.70;2.65;;;;;;;7.73;100.00;95517.00;5060899;28;24469;-71
2022/12/24 03:30:23;;;;;;;10.23;2.92;;;;;;;7.77;100.00;95517.66;5065965;28;24454;-71
2022/12/24 03:32:50;;;;;;;7.57;2.72;;;;;;;7.82;100.00;95507.09;5068425;28;20800;-71
2022/12/24 03:35:17;;;;;;;8.02;2.53;;;;;;;7.83;100.00;95511.34;5067104;28;24439;-71
2022/12/24 03:37:44;;;;;;;7.00;2.20;;;;;;;7.75;100.00;95525.50;5065083;28;24450;-71
2022/12/24 03:40:11;;;;;;;7.30;2.20;;;;;;;7.79;100.00;95530.47;5071527;28;24552;-71
2022/12/24 03:42:38;;;;;;;8.52;2.42;;;;;;;7.77;100.00;95538.28;5071009;28;20772;-71
2022/12/24 03:45:05;;;;;;;9.18;2.60;;;;;;;7.83;100.00;95531.97;5064850;28;25165;-71
2022/12/24 03:47:32;;;;;;;8.40;2.33;;;;;;;7.74;100.00;95541.84;5059614;28;20792;-71
2022/12/24 03:49:58;;;;;;;7.60;2.28;;;;;;;7.76;100.00;95534.88;5065822;28;24551;-71
2022/12/24 03:52:27;;;;;;;8.20;2.50;;;;;;;7.79;100.00;95533.03;5068187;28;24454;-71
2022/12/24 03:54:53;;;;;;;8.00;2.58;;;;;;;7.81;100.00;95536.38;5068134;28;20827;-71
2022/12/24 03:57:20;;;;;;;6.10;2.53;;;;;;;7.85;100.00;95541.25;5065522;28;20786;-71
2022/12/24 03:59:46;;;;;;;11.93;2.50;;;;;;;7.86;100.00;95537.78;5064716;28;21281;-71
2022/12/24 04:02:12;;;;;;;9.32;2.40;;;;;;;7.95;100.00;95531.28;5069972;28;25035;-71
2022/12/24 04:04:39;;;;;;;7.93;2.45;;;;;;;7.87;100.00;95541.19;5063691;28;24463;-71
2022/12/24 04:07:06;;;;;;;11.40;2.42;;;;;;;7.85;100.00;95538.69;5064677;28;24789;-71
2022/12/24 04:09:33;;;;;;;10.10;2.70;;;;;;;7.74;100.00;95541.03;5068113;28;20784;-71
2022/12/24 04:12:00;;;;;;;11.15;2.42;;;;;;;7.72;100.00;95546.28;5068192;28;20822;-70
2022/12/24 04:14:26;;;;;;;7.00;2.70;;;;;;;7.73;100.00;95547.09;5062784;28;20782;-70
2022/12/24 04:16:53;;;;;;;20.15;2.97;;;;;;;7.61;100.00;95551.19;5061800;28;20790;-70
2022/12/24 04:19:19;;;;;;;9.15;2.42;;;;;;;7.53;100.00;95566.25;5071569;28;24453;-70
2022/12/24 04:21:46;;;;;;;10.23;2.85;;;;;;;7.44;100.00;95562.41;5067234;28;24438;-70
2022/12/24 04:24:12;;;;;;;17.02;2.97;;;;;;;7.43;100.00;95559.91;5067619;28;24481;-70
2022/12/24 04:26:40;;;;;;;8.98;2.15;;;;;;;7.46;100.00;95554.59;5064057;28;24461;-71
2022/12/24 04:29:06;;;;;;;6.22;2.08;;;;;;;7.50;100.00;95546.63;5066856;28;24443;-70
2022/12/24 04:31:33;;;;;;;10.32;2.30;;;;;;;7.45;100.00;95558.94;5066601;28;24450;-70
2022/12/24 04:33:59;;;;;;;8.60;2.50;;;;;;;7.42;100.00;95566.81;5067673;28;25022;-70
2022/12/24 04:36:26;;;;;;;6.78;2.38;;;;;;;7.43;100.00;95555.59;5065120;28;24988;-70
2022/12/24 04:38:52;;;;;;;7.63;2.25;;;;;;;7.44;100.00;95571.88;5060453;28;24458;-70
2022/12/24 04:41:21;;;;;;;12.70;2.50;;;;;;;7.40;100.00;95585.84;5069815;28;24448;-70
2022/12/24 04:43:49;;;;;;;8.88;2.58;;;;;;;7.43;100.00;95577.97;5061960;28;20796;-70
2022/12/24 04:46:18;;;;;;;9.32;2.85;;;;;;;7.41;100.00;95583.19;5059462;28;20792;-70
2022/12/24 04:48:45;;;;;;;7.93;3.50;;;;;;;7.39;100.00;95572.13;5066732;28;21382;-70
2022/12/24 04:51:13;;;;;;;16.95;6.22;;;;;;;7.36;100.00;95579.19;5081417;28;21360;-70
2022/12/24 04:53:41;;;;;;;19.20;8.13;;;;;;;7.33;100.00;95592.22;5070078;28;24461;-70
2022/12/24 04:56:11;;;;;;;16.90;7.20;;;;;;;7.27;100.00;95606.28;5068396;28;20828;-70
2022/12/24 04:58:38;;;;;;;11.02;4.72;;;;;;;7.31;100.00;95597.47;5063349;28;21304;-70
2022/12/24 05:01:06;;;;;;;13.82;3.35;;;;;;;7.34;100.00;95612.78;5061599;28;24446;-70
2022/12/24 05:03:33;;;;;;;9.23;3.00;;;;;;;7.32;100.00;95618.91;5069738;28;20785;-70
2022/12/24 05:06:03;;;;;;;11.57;2.72;;;;;;;7.31;100.00;95614.69;5065610;28;21365;-70
2022/12/24 05:08:29;;;;;;;9.85;3.00;;;;;;;7.34;100.00;95612.78;5071857;28;20730;-70
2022/12/24 05:10:56;;;;;;;9.47;2.33;;;;;;;7.38;100.00;95603.13;5073171;28;25022;-70
2022/12/24 05:13:23;;;;;;;14.90;3.25;;;;;;;7.32;100.00;95603.47;5089305;28;20771;-70
2022/12/24 05:15:50;;;;;;;12.35;3.22;;;;;;;7.27;100.00;95611.44;5087998;28;21292;-70
2022/12/24 05:18:17;;;;;;;11.43;2.97;;;;;;;7.26;100.00;95622.63;5081362;28;25033;-71
2022/12/24 05:20:44;;;;;;;8.00;3.10;;;;;;;7.27;100.00;95612.25;5074974;28;20783;-70
2022/12/24 05:28:43;;;;;;;8.20;2.58;;;;;;;7.38;100.00;95611.69;5064932;28;20931;-70
2022/12/24 05:31:10;;;;;;;7.32;2.50;;;;;;;7.32;100.00;95619.75;5068061;28;21346;-70
2022/12/24 05:33:37;;;;;;;13.45;3.00;;;;;;;7.27;100.00;95603.72;5059118;28;25215;-70
2022/12/24 05:36:04;;;;;;;12.05;3.42;;;;;;;7.24;100.00;95599.53;5071587;28;20825;-72
2022/12/24 05:38:31;;;;;;;8.85;2.70;;;;;;;7.24;100.00;95601.28;5064190;28;24446;-72
2022/12/24 05:40:57;;;;;;;11.10;3.20;;;;;;;7.21;100.00;95599.69;5084291;28;24434;-72
2022/12/24 05:43:24;;;;;;;14.37;3.20;;;;;;;7.25;100.00;95597.78;5084431;28;24441;-72
2022/12/24 05:45:50;;;;;;;9.13;2.90;;;;;;;7.31;100.00;95596.66;5069478;28;20783;-72
2022/12/24 05:48:17;;;;;;;10.65;2.88;;;;;;;7.30;100.00;95594.97;5067593;28;24447;-71
2022/12/24 05:50:44;;;;;;;14.57;3.00;;;;;;;7.28;100.00;95595.06;5072041;28;24462;-73
2022/12/24 05:53:11;;;;;;;10.25;2.70;;;;;;;7.22;100.00;95601.34;5077575;28;21366;-71
2022/12/24 05:55:37;;;;;;;12.50;3.53;;;;;;;7.25;100.00;95613.25;5073047;28;24437;-71
2022/12/24 05:58:04;;;;;;;14.37;3.03;;;;;;;7.19;100.00;95611.84;5076134;28;20788;-71
2022/12/24 06:00:30;;;;;;;9.93;2.72;;;;;;;7.20;100.00;95602.34;5071231;28;20783;-71
2022/12/24 06:02:57;;;;;;;12.25;3.00;;;;;;;7.21;100.00;95597.13;5073315;28;24458;-71
2022/12/24 06:05:23;;;;;;;16.38;3.38;;;;;;;7.24;100.00;95602.13;5065448;28;24447;-71
2022/12/24 06:07:51;;;;;;;11.82;3.17;;;;;;;7.24;100.00;95603.84;5078608;28;24438;-71
2022/12/24 06:10:18;;;;;;;15.67;2.77;;;;;;;7.18;100.00;95601.59;5071783;28;24438;-70
2022/12/24 06:12:44;;;;;;;15.13;3.47;;;;;;;7.20;100.00;95603.19;5075956;28;20769;-70
2022/12/24 06:15:11;;;;;;;10.20;3.20;;;;;;;7.26;100.00;95595.13;5080593;28;24447;-71
2022/12/24 06:17:37;;;;;;;15.07;4.15;;;;;;;7.24;100.00;95594.38;5079739;28;24439;-71
2022/12/24 06:20:05;;;;;;;10.88;3.00;;;;;;;7.26;100.00;95592.53;5073508;28;24455;-71
2022/12/24 06:22:31;;;;;;;13.65;3.17;;;;;;;7.30;100.00;95611.25;5067025;28;20790;-71
2022/12/24 06:24:59;;;;;;;10.60;3.05;;;;;;;7.32;100.00;95616.34;5069752;28;24455;-71
2022/12/24 06:27:26;;;;;;;13.75;3.20;;;;;;;7.42;100.00;95617.53;5079401;28;20803;-71
2022/12/24 06:29:52;;;;;;;12.57;3.40;;;;;;;7.45;100.00;95612.19;5073969;28;24446;-71
2022/12/24 06:32:20;;;;;;;11.45;3.03;;;;;;;7.48;100.00;95609.44;5071670;28;24445;-70
2022/12/24 06:34:46;;;;;;;9.52;2.65;;;;;;;7.46;100.00;95624.19;5073868;28;24438;-70
2022/12/24 06:37:17;;;;;;;11.80;2.95;;;;;;;7.43;100.00;95625.16;5080610;28;24437;-70
2022/12/24 06:39:43;;;;;;;12.07;2.92;;;;;;;7.40;100.00;95637.38;5076965;28;20810;-70
2022/12/24 06:42:11;;;;;;;10.95;3.13;;;;;;;7.40;100.00;95634.78;5074581;28;24986;-72
2022/12/24 06:44:38;;;;;;;10.20;2.63;;;;;;;7.39;100.00;95631.41;5074121;28;21376;-72
2022/12/24 06:47:04;;;;;;;11.02;2.88;;;;;;;7.27;100.00;95635.44;5075137;28;24466;-71
2022/12/24 06:49:31;;;;;;;9.10;2.90;;;;;;;7.25;100.00;95639.00;5072602;28;24990;-71
2022/12/24 06:51:57;;;;;;;12.93;2.77;;;;;;;7.26;100.00;95651.78;5079185;28;24815;-71
2022/12/24 06:54:24;;;;;;;10.17;2.60;;;;;;;7.25;100.00;95651.88;5075955;28;24505;-72
2022/12/24 06:56:51;;;;;;;7.13;2.75;;;;;;;7.22;100.00;95655.44;5062237;28;24446;-69
2022/12/24 06:59:18;;;;;;;8.45;2.78;;;;;;;7.25;100.00;95669.91;5068734;28;24442;-70
2022/12/24 07:01:45;;;;;;;6.00;2.20;;;;;;;7.26;100.00;95662.09;5079346;28;24442;-70
2022/12/24 07:04:11;;;;;;;8.30;2.58;;;;;;;7.30;100.00;95664.53;5079066;28;24438;-70
2022/12/24 07:06:38;;;;;;;8.20;2.58;;;;;;;7.24;100.00;95674.25;5082559;28;24446;-71
2022/12/24 07:09:04;;;;;;;7.50;2.50;;;;;;;7.28;100.00;95668.00;5080879;28;24435;-72
2022/12/24 07:11:31;;;;;;;8.17;2.77;;;;;;;7.30;100.00;95677.41;5073633;28;24503;-72
2022/12/24 07:13:57;;;;;;;7.33;2.27;;;;;;;7.15;100.00;95679.00;5080098;28;24533;-72
2022/12/24 07:16:25;;;;;;;11.52;3.28;;;;;;;7.01;100.00;95688.28;5069605;28;24441;-72
2022/12/24 07:18:51;;;;;;;12.98;3.55;;;;;;;6.99;100.00;95692.66;5061249;28;24450;-71
2022/12/24 07:21:18;;;;;;;10.73;3.30;;;;;;;7.00;100.00;95696.06;5061631;28;24546;-71
2022/12/24 07:23:44;;;;;;;8.63;2.72;;;;;;;7.00;100.00;95693.50;5072293;28;24446;-71
2022/12/24 07:26:11;;;;;;;8.20;2.70;;;;;;;7.01;100.00;95692.59;5067321;28;24454;-71
2022/12/24 07:28:38;;;;;;;7.03;2.65;;;;;;;7.01;100.00;95703.72;5076111;28;24469;-71
2022/12/24 07:31:04;;;;;;;9.02;2.83;;;;;;;7.08;100.00;95698.25;5082742;28;24441;-71
2022/12/24 07:33:32;;;;;;;6.80;2.55;;;;;;;6.94;100.00;95699.78;5060910;28;24466;-71
2022/12/24 07:36:00;;;;;;;10.37;2.87;;;;;;;6.90;100.00;95697.47;5066993;28;24558;-71
2022/12/24 07:38:27;;;;;;;8.70;2.80;;;;;;;6.94;100.00;95698.97;5072236;28;24522;-72
2022/12/24 07:40:54;;;;;;;9.70;3.17;;;;;;;6.85;100.00;95696.84;5062863;28;24439;-70
2022/12/24 07:43:21;;;;;;;10.45;2.90;;;;;;;6.87;100.00;95701.00;5059797;28;25031;-70
2022/12/24 07:45:47;;;;;;;14.80;3.50;;;;;;;6.91;100.00;95712.00;5069341;28;24454;-71
2022/12/24 07:48:14;;;;;;;6.90;3.33;;;;;;;6.84;100.00;95710.63;5070759;28;24453;-71
2022/12/24 07:50:42;;;;;;;12.50;3.72;;;;;;;7.09;100.00;95717.97;5075232;28;24509;-72
2022/12/24 07:53:08;;;;;;;16.73;3.63;;;;;;;7.26;100.00;95726.50;5078446;28;20777;-70
2022/12/24 07:55:35;;;;;;;13.93;3.47;;;;;;;7.30;100.00;95732.31;5073987;28;24991;-72
2022/12/24 07:58:02;;;;;;;12.48;3.10;;;;;;;7.31;100.00;95741.75;5062176;28;25011;-70
2022/12/24 08:00:28;;;;;;;8.40;2.88;;;;;;;7.24;100.00;95737.81;5072897;28;24458;-72
2022/12/24 08:02:55;;;;;;;12.07;3.70;;;;;;;7.22;100.00;95734.47;5065386;28;24454;-72
2022/12/24 08:05:21;;;;;;;9.23;3.05;;;;;;;7.41;100.00;95730.03;5066494;28;24455;-72
2022/12/24 08:07:49;;;;;;;9.40;3.00;;;;;;;7.30;100.00;95728.94;5073937;28;24529;-72
2022/12/24 08:10:16;;;;;;;9.23;2.90;;;;;;;7.38;100.00;95726.78;5072723;28;20835;-71
2022/12/24 08:12:42;;;;;;;9.03;3.27;;;;;;;7.21;100.00;95741.38;5085531;28;24441;-71
2022/12/24 08:15:10;;;;;;;12.17;3.03;;;;;;;7.12;100.00;95740.97;5074921;28;24521;-71
2022/12/24 08:17:36;;;;;;;11.48;3.55;;;;;;;7.18;100.00;95749.22;5074073;28;20784;-71
2022/12/24 08:20:04;;;;;;;9.35;3.17;;;;;;;7.25;100.00;95744.63;5062373;28;24454;-71
2022/12/24 08:22:30;;;;;;;11.73;3.05;;;;;;;7.29;100.00;95740.97;5060508;28;24473;-71
2022/12/24 08:24:58;;;;;;;13.93;3.17;;;;;;;7.31;100.00;95751.22;5069480;28;20800;-71
2022/12/24 08:27:24;;;;;;;11.80;3.17;;;;;;;7.33;100.00;95760.50;5076456;28;24445;-71
2022/12/24 08:29:51;;;;;;;10.33;3.03;;;;;;;7.33;100.00;95757.94;5078346;28;24445;-71
2022/12/24 08:32:18;;;;;;;8.53;3.63;;;;;;;7.37;100.00;95758.63;5079829;28;24434;-71
2022/12/24 08:34:44;;;;;;;10.80;3.63;;;;;;;7.41;100.00;95767.84;5079168;28;24443;-71
2022/12/24 08:37:10;;;;;;;11.70;3.20;;;;;;;7.41;100.00;95773.84;5074128;28;24449;-72
2022/12/24 08:39:37;;;;;;;11.32;3.00;;;;;;;7.42;100.00;95779.84;5072683;28;20789;-71
2022/12/24 08:42:05;;;;;;;24.88;3.50;;;;;;;7.46;100.00;95766.72;5076237;28;21257;-72
2022/12/24 08:44:32;;;;;;;13.63;2.88;;;;;;;7.48;100.00;95771.78;5067476;28;20786;-71
2022/12/24 08:46:58;;;;;;;10.98;3.45;;;;;;;7.51;100.00;95774.22;5073883;28;24446;-72
2022/12/24 08:49:25;;;;;;;9.35;3.33;;;;;;;7.54;100.00;95768.91;5078069;28;21083;-71
2022/12/24 08:51:51;;;;;;;12.43;2.97;;;;;;;7.58;100.00;95785.06;5076392;28;25090;-72
2022/12/24 08:54:18;;;;;;;13.85;3.17;;;;;;;7.60;100.00;95780.66;5081898;28;20786;-71
2022/12/24 08:56:45;;;;;;;8.55;2.53;;;;;;;7.63;100.00;95783.06;5079521;28;24507;-69
2022/12/24 08:59:12;;;;;;;7.88;2.67;;;;;;;7.71;100.00;95774.06;5073139;28;24442;-72
2022/12/24 09:01:39;;;;;;;11.25;3.35;;;;;;;7.77;100.00;95780.63;5072769;28;20772;-72
2022/12/24 09:04:05;;;;;;;10.67;2.97;;;;;;;7.84;100.00;95779.41;5077942;28;25046;-72
2022/12/24 09:06:32;;;;;;;10.02;3.20;;;;;;;7.98;100.00;95784.69;5057857;28;24455;-71
2022/12/24 09:08:59;;;;;;;12.50;3.47;;;;;;;8.10;100.00;95790.94;5065492;28;20789;-72
2022/12/24 09:11:25;;;;;;;10.70;3.45;;;;;;;8.18;100.00;95793.09;5067594;28;24443;-72
2022/12/24 09:13:52;;;;;;;10.43;3.67;;;;;;;8.21;100.00;95792.94;5066157;28;24456;-72
2022/12/24 09:16:20;;;;;;;13.40;3.50;;;;;;;8.32;100.00;95805.28;5063187;28;24426;-72
2022/12/24 09:18:47;;;;;;;12.17;3.03;;;;;;;8.40;100.00;95811.72;5072304;28;24521;-72
2022/12/24 09:21:16;;;;;;;9.70;3.33;;;;;;;8.50;100.00;95817.25;5066058;28;20793;-72
2022/12/24 09:23:44;;;;;;;14.15;3.50;;;;;;;8.46;100.00;95819.16;5073014;28;20746;-72
2022/12/24 09:26:14;;;;;;;16.95;3.83;;;;;;;8.53;100.00;95819.66;5064366;28;20821;-72
2022/12/24 09:28:40;;;;;;;9.38;3.35;;;;;;;8.46;100.00;95829.47;5061933;28;20800;-71
2022/12/24 09:31:08;;;;;;;11.75;3.20;;;;;;;8.47;100.00;95828.56;5069443;28;20789;-71
2022/12/24 09:33:38;;;;;;;10.20;3.35;;;;;;;8.37;100.00;95826.50;5068356;28;21141;-71
2022/12/24 09:36:05;;;;;;;11.90;3.42;;;;;;;8.46;100.00;95828.66;5067846;28;24437;-71
2022/12/24 09:38:33;;;;;;;11.55;3.72;;;;;;;8.45;100.00;95821.78;5062458;28;24450;-71
2022/12/24 09:41:01;;;;;;;11.13;3.50;;;;;;;8.42;100.00;95829.72;5069964;28;21127;-73
2022/12/24 09:43:31;;;;;;;9.82;3.15;;;;;;;8.43;100.00;95818.47;5067794;28;25043;-72
2022/12/24 09:46:09;;;;;;;11.23;3.55;;;;;;;8.63;100.00;95819.97;5067333;28;20781;-71
2022/12/24 09:48:41;;;;;;;11.77;3.60;;;;;;;8.65;100.00;95821.56;5080907;28;20791;-72
2022/12/24 09:51:10;;;;;;;20.48;4.18;;;;;;;8.76;100.00;95807.25;5086598;28;20708;-72
2022/12/24 09:53:40;;;;;;;12.30;3.67;;;;;;;9.00;100.00;95803.28;5069564;28;20819;-71
2022/12/24 09:56:15;;;;;;;10.13;3.33;;;;;;;9.13;100.00;95803.44;5072814;28;24516;-71
2022/12/24 09:58:47;;;;;;;15.18;3.92;;;;;;;9.23;100.00;95806.31;5081949;28;20794;-72
2022/12/24 10:01:16;;;;;;;14.00;3.80;;;;;;;9.34;100.00;95814.28;5076683;28;20762;-72
2022/12/24 10:03:45;;;;;;;14.60;3.67;;;;;;;9.38;100.00;95808.88;5071983;28;20798;-72
2022/12/24 10:06:15;;;;;;;10.90;3.42;;;;;;;9.47;100.00;95806.69;5076212;28;24899;-71
2022/12/24 10:09:03;;;;;;;12.88;3.78;;;;;;;9.34;100.00;95817.72;5067323;28;24438;-71
2022/12/24 10:11:41;;;;;;;12.85;3.72;;;;;;;9.29;100.00;95813.75;5073606;28;20786;-72
2022/12/24 10:14:31;;;;;;;12.15;3.78;;;;;;;9.21;100.00;95814.19;5063737;28;20830;-72
2022/12/24 10:17:14;;;;;;;15.88;3.35;;;;;;;9.00;100.00;95821.38;5059316;28;20791;-72
2022/12/24 10:19:50;;;;;;;13.20;3.35;;;;;;;9.08;100.00;95828.69;5073489;28;20754;-72
2022/12/24 10:22:26;;;;;;;9.73;3.08;;;;;;;9.10;100.00;95835.44;5064298;28;20881;-71
2022/12/24 10:24:59;;;;;;;11.55;3.25;;;;;;;9.09;100.00;95831.19;5073107;28;24434;-71
2022/12/24 10:27:31;;;;;;;10.80;3.65;;;;;;;9.08;100.00;95831.28;5079215;28;24455;-72
2022/12/24 10:30:02;;;;;;;14.23;3.63;;;;;;;8.95;100.00;95841.47;5083663;28;21297;-71
2022/12/24 10:32:32;;;;;;;11.10;3.33;;;;;;;8.83;100.00;95858.47;5078308;28;24442;-71
2022/12/24 10:35:08;;;;;;;11.93;3.60;;;;;;;8.85;100.00;95846.28;5077733;28;24442;-71
2022/12/24 10:37:34;;;;;;;11.47;3.90;;;;;;;8.85;100.00;95843.72;5081604;28;24433;-71
2022/12/24 10:40:03;;;;;;;14.67;3.77;;;;;;;8.80;100.00;95837.97;5082964;28;20803;-71
2022/12/24 10:42:38;;;;;;;12.00;3.85;;;;;;;8.82;100.00;95838.72;5079037;28;24445;-72
2022/12/24 10:45:07;;;;;;;13.77;5.75;;;;;;;8.77;100.00;95843.31;5084255;28;25007;-72
2022/12/24 10:47:38;;;;;;;13.65;3.83;;;;;;;8.90;100.00;95846.06;5079103;28;24459;-72
2022/12/24 10:50:13;;;;;;;8.63;2.90;;;;;;;8.94;100.00;95844.97;5076026;28;20719;-71
2022/12/24 10:52:44;;;;;;;15.13;3.67;;;;;;;8.85;100.00;95840.31;5084179;28;24446;-71
2022/12/24 10:55:23;;;;;;;9.65;3.67;;;;;;;8.88;100.00;95838.38;5079827;28;21470;-71
2022/12/24 10:57:59;;;;;;;15.90;3.42;;;;;;;8.89;100.00;95837.47;5081026;28;20639;-71
2022/12/24 11:00:26;;;;;;;10.52;3.30;;;;;;;8.86;100.00;95841.97;5071681;28;21187;-71
2022/12/24 11:03:07;;;;;;;11.27;3.70;;;;;;;8.87;100.00;95841.88;5076972;28;24434;-71
2022/12/24 11:05:37;;;;;;;17.70;6.90;;;;;;;8.92;100.00;95841.63;5074573;28;25387;-72
2022/12/24 11:08:06;;;;;;;11.43;5.22;;;;;;;8.97;100.00;95839.63;5078454;28;20772;-72
2022/12/24 11:10:35;;;;;;;16.88;4.38;;;;;;;8.95;100.00;95841.47;5071323;28;20822;-71
2022/12/24 11:13:02;;;;;;;13.57;4.15;;;;;;;9.00;100.00;95839.44;5063821;28;20783;-71
2022/12/24 11:15:33;;;;;;;18.58;3.75;;;;;;;8.93;100.00;95848.44;5073796;28;24449;-72
2022/12/24 11:18:03;;;;;;;12.07;3.92;;;;;;;8.91;100.00;95851.13;5069414;28;24520;-71
2022/12/24 11:20:32;;;;;;;12.97;4.90;;;;;;;8.92;100.00;95844.22;5071726;28;20781;-73
2022/12/24 11:23:01;;;;;;;15.75;4.50;;;;;;;8.86;100.00;95858.31;5077026;28;20759;-73
2022/12/24 11:25:30;;;;;;;16.40;4.85;;;;;;;8.95;100.00;95851.81;5077940;28;21142;-72
2022/12/24 11:27:57;;;;;;;15.13;5.75;;;;;;;9.09;100.00;95846.72;5070291;28;20775;-73
2022/12/24 11:30:28;;;;;;;19.00;9.10;;;;;;;9.08;100.00;95839.84;5073510;28;24520;-73
2022/12/24 11:33:18;;;;;;;30.67;13.47;;;;;;;9.08;100.00;95852.78;5082073;28;20807;-72
2022/12/24 11:35:48;;;;;;;14.07;6.80;;;;;;;9.10;100.00;95855.28;5070930;28;20680;-72
2022/12/24 11:38:21;;;;;;;15.80;3.75;;;;;;;9.42;100.00;95841.38;5078567;28;20817;-72
2022/12/24 11:40:49;;;;;;;12.35;3.35;;;;;;;9.42;100.00;95846.56;5071152;28;20780;-72
2022/12/24 11:43:17;;;;;;;17.63;4.68;;;;;;;9.40;100.00;95852.72;5078835;28;24461;-72
2022/12/24 11:45:49;;;;;;;22.98;11.27;;;;;;;9.26;100.00;95850.91;5074100;28;24442;-72
2022/12/24 11:48:28;;;;;;;18.95;6.45;;;;;;;9.21;100.00;95838.25;5072058;28;20754;-72